»·PEaware :: N32196 KRDD-KACV

N32196 :: KRDD-KACV

FLIGHT INFORMATION

Flight Status: Arrived
Operator: Privately registered:
United States
More flights under this callsign
Pilot: Gary H. (18965)
Aircraft: PIPER PA-28R-201 ARROW
(P28R)
More flights by this aircraft type
Origin: KRDD Redding Mun
United States
Destination: KACV Arcata
United States
More flights between these airports :: More routes between these airports
Route: +YAGER
File this flight plan on PilotEdge
Remarks:
Altitude:
(Current/Filed)
10,000ft
Speed:
(Current/Filed)
120kts
Departed: 30-Sep-20 04:17 PM
Arrived: 30-Sep-20 05:04 PM
Distance/Time
Traveled:
87nm/0:47
Distance/Time
To Go:
Arrived

Flight Plot

Page will automatically refresh every two minutes.

Flight plan parsing failed; only flown route is shown


Map Options




Map Legend


Flown Route
Filed Route
Departure Airport
Arrival Airport
Navaid (VOR, NDB)
Fix

Horizontal Profiles

Position Reports

Time Latitude Longitude Heading Altitude Ground
Speed
30-Sep-20 16:07 40.519845 -122.291446 359 499ft 0kts
30-Sep-20 16:08 40.519845 -122.291446 359 499ft 0kts
30-Sep-20 16:09 40.519845 -122.291446 359 499ft 0kts
30-Sep-20 16:10 40.519845 -122.291446 359 499ft 0kts
30-Sep-20 16:11 40.519960 -122.291629 283 499ft 3kts
30-Sep-20 16:12 40.520131 -122.293565 268 499ft 0kts
30-Sep-20 16:13 40.520131 -122.293566 268 499ft 0kts
30-Sep-20 16:14 40.520131 -122.293565 268 499ft 0kts
30-Sep-20 16:15 40.520259 -122.293965 277 500ft 8kts
30-Sep-20 16:16 40.503798 -122.295214 179 855ft 97kts
30-Sep-20 16:17 40.488058 -122.316918 282 1951ft 104kts
30-Sep-20 16:18 40.487969 -122.356466 270 2825ft 109kts
30-Sep-20 16:19 40.487901 -122.395829 275 3738ft 106kts
30-Sep-20 16:20 40.490226 -122.435550 276 4596ft 110kts
30-Sep-20 16:21 40.492707 -122.475917 275 5403ft 113kts
30-Sep-20 16:22 40.495442 -122.517116 276 6325ft 114kts
30-Sep-20 16:23 40.498449 -122.559222 276 7183ft 117kts
30-Sep-20 16:24 40.501274 -122.602147 275 7979ft 119kts
30-Sep-20 16:25 40.504323 -122.645711 275 8719ft 121kts
30-Sep-20 16:26 40.507714 -122.690143 274 9398ft 123kts
30-Sep-20 16:27 40.511416 -122.735433 274 9946ft 130kts
30-Sep-20 16:28 40.515494 -122.785660 275 10025ft 143kts
30-Sep-20 16:29 40.519690 -122.838395 275 10013ft 145kts
30-Sep-20 16:30 40.523499 -122.891360 273 10019ft 145kts
30-Sep-20 16:31 40.526736 -122.944143 271 10029ft 144kts
30-Sep-20 16:32 40.529277 -122.996658 271 10028ft 143kts
30-Sep-20 16:33 40.532193 -123.048450 271 10024ft 141kts
30-Sep-20 16:34 40.535060 -123.099851 269 10021ft 139kts
30-Sep-20 16:35 40.537079 -123.150718 269 10017ft 139kts
30-Sep-20 16:36 40.539039 -123.201232 269 10039ft 138kts
30-Sep-20 16:37 40.541438 -123.250497 269 10093ft 132kts
30-Sep-20 16:38 40.543533 -123.298126 267 10147ft 129kts
30-Sep-20 16:39 40.545030 -123.345868 267 10057ft 136kts
30-Sep-20 16:40 40.546516 -123.394775 267 10021ft 132kts
30-Sep-20 16:41 40.548020 -123.443397 267 9982ft 134kts
30-Sep-20 16:42 40.549538 -123.492318 267 9991ft 133kts
30-Sep-20 16:43 40.551064 -123.541049 267 9897ft 135kts
30-Sep-20 16:44 40.552464 -123.591702 267 9439ft 140kts
30-Sep-20 16:45 40.553825 -123.642997 267 8982ft 139kts
30-Sep-20 16:46 40.555172 -123.693660 267 8535ft 138kts
30-Sep-20 16:47 40.556493 -123.743753 267 8125ft 136kts
30-Sep-20 16:48 40.557857 -123.791942 267 8003ft 129kts
30-Sep-20 16:49 40.573681 -123.831391 330 7686ft 147kts
30-Sep-20 16:50 40.610196 -123.855549 328 7132ft 150kts
30-Sep-20 16:51 40.647234 -123.880628 328 6432ft 149kts
30-Sep-20 16:52 40.683568 -123.905618 326 5804ft 145kts
30-Sep-20 16:53 40.716386 -123.931859 327 5611ft 134kts
30-Sep-20 16:54 40.750545 -123.954794 326 5241ft 138kts
30-Sep-20 16:55 40.784004 -123.979220 326 4809ft 138kts
30-Sep-20 16:56 40.818751 -124.002183 334 4088ft 143kts
30-Sep-20 16:57 40.846999 -124.018755 328 3212ft 94kts
30-Sep-20 16:58 40.870639 -124.034754 332 2558ft 95kts
30-Sep-20 16:59 40.893598 -124.050764 327 2006ft 92kts
30-Sep-20 17:00 40.916482 -124.066649 331 1447ft 93kts
30-Sep-20 17:01 40.939319 -124.081896 330 963ft 92kts
30-Sep-20 17:03 40.960297 -124.096451 331 516ft 81kts
30-Sep-20 17:04 40.975470 -124.106452 332 225ft 21kts
30-Sep-20 17:05 40.976746 -124.108405 207 225ft 0kts

Navigation Log

Ident Type
Flight plan parsing failed, navigation log unavailable